ANA2336 RJKA-RJFF

Flight info

Callsign ANA2336
Flight time N/A
Altitude 25000
Route RURIK Y532 HKC Y14 OSTEP
Aircraft A320/M-SDE3FGHIRWY/LB1

Departure

Time 2026-04-22 18:52
Airport Amami Airport (RJKA)

Arrival

Time N/A
Airport Fukuoka Airport (RJFF)
Time Latitude Longitude Altitude Speed Heading
2026-04-22 18:27 28.43117 129.70904 50 ft 0 kts 298°
2026-04-22 18:45 28.43117 129.70905 56 ft 1 kts 298°
2026-04-22 18:46 28.43106 129.70928 51 ft 4 kts 296°
2026-04-22 18:46 28.43097 129.70950 51 ft 4 kts 297°
2026-04-22 18:46 28.43084 129.70977 52 ft 4 kts 300°
2026-04-22 18:46 28.43069 129.71003 55 ft 4 kts 307°
2026-04-22 18:47 28.43052 129.71025 50 ft 3 kts 322°
2026-04-22 18:47 28.43048 129.71027 50 ft 0 kts 324°
2026-04-22 18:49 28.43049 129.71027 50 ft 1 kts 324°
2026-04-22 18:49 28.43070 129.71047 52 ft 12 kts 34°
2026-04-22 18:49 28.43212 129.71127 56 ft 29 kts 26°
2026-04-22 18:50 28.43384 129.71221 54 ft 26 kts 26°
2026-04-22 18:50 28.43543 129.71310 51 ft 25 kts 26°
2026-04-22 18:50 28.43692 129.71391 53 ft 23 kts 25°
2026-04-22 18:50 28.43831 129.71467 48 ft 21 kts 26°
2026-04-22 18:51 28.43926 129.71567 56 ft 17 kts 89°
2026-04-22 18:51 28.43871 129.71681 53 ft 17 kts 118°
2026-04-22 18:51 28.43822 129.71674 53 ft 7 kts 211°
2026-04-22 18:51 28.43700 129.71608 54 ft 47 kts 205°
2026-04-22 18:52 28.43198 129.71330 54 ft 111 kts 206°
2026-04-22 18:52 28.42388 129.70880 362 ft 133 kts 205°
2026-04-22 18:52 28.41516 129.70560 955 ft 139 kts 177°
2026-04-22 18:52 28.40647 129.71075 1567 ft 150 kts 140°
2026-04-22 18:53 28.40237 129.72267 1920 ft 185 kts 93°
2026-04-22 18:53 28.40732 129.73729 2092 ft 215 kts 58°
2026-04-22 18:53 28.41686 129.75118 2239 ft 237 kts 50°
2026-04-22 18:53 28.42845 129.76574 2364 ft 260 kts 48°
2026-04-22 18:54 28.44127 129.78149 2536 ft 283 kts 48°
2026-04-22 18:54 28.45474 129.79839 2928 ft 292 kts 49°
2026-04-22 18:54 28.46840 129.81565 3458 ft 294 kts 44°
2026-04-22 18:54 28.48424 129.83036 3996 ft 295 kts 30°
2026-04-22 18:55 28.50249 129.84099 4518 ft 295 kts 17°
2026-04-22 18:55 28.52163 129.84968 5047 ft 297 kts 17°
2026-04-22 18:55 28.54062 129.85842 5570 ft 300 kts 17°
2026-04-22 18:55 28.56001 129.86744 6102 ft 302 kts 17°
2026-04-22 18:56 28.57952 129.87658 6572 ft 304 kts 17°
2026-04-22 18:56 28.59916 129.88580 7032 ft 306 kts 17°
2026-04-22 18:56 28.61753 129.89441 7458 ft 308 kts 17°
2026-04-22 18:56 28.63736 129.90369 7920 ft 309 kts 16°
2026-04-22 18:57 28.65734 129.91303 8382 ft 311 kts 16°
2026-04-22 18:57 28.67742 129.92241 8876 ft 313 kts 16°
2026-04-22 18:57 28.69760 129.93182 9359 ft 314 kts 15°
2026-04-22 18:57 28.71787 129.94125 9826 ft 315 kts 15°
2026-04-22 18:58 28.73800 129.95059 10147 ft 319 kts 15°
2026-04-22 18:58 28.75887 129.96029 10284 ft 329 kts 15°
2026-04-22 18:58 28.78040 129.97030 10400 ft 339 kts 16°
2026-04-22 18:58 28.80247 129.98059 10521 ft 347 kts 16°
2026-04-22 18:59 28.82502 129.99110 10639 ft 353 kts 16°